This is the latest recevied weather packets stored in our database for station/object KB1JDX. If no packets are shown the sender has not sent any weather packets the latest 10 day(s).
| Time | Temp. | Humidity | Pressure | Rain* | Wind** | Luminosity | Snow |
|---|---|---|---|---|---|---|---|
| 1777674034 | 16.67° C | 36% | 1009.2 hPa | 0 mm | 0 m/s | - | - |
| 1777673966 | 16.67° C | 35% | 1009.1 hPa | 0 mm | 0 m/s | - | - |
| 1777671635 | 16.67° C | 35% | 1008.9 hPa | 0 mm | 0 m/s | - | - |
| 1777670432 | 17.22° C | 35% | 1009 hPa | 0 mm | 2.68 m/s, 57° | - | - |
| 1777670365 | 17.22° C | 34% | 1009 hPa | 0 mm | 0.45 m/s, 300° | - | - |
| 1777669232 | 17.78° C | 35% | 1008.7 hPa | 0 mm | 0 m/s | - | - |
| 1777668032 | 18.33° C | 33% | 1008.7 hPa | 0 mm | 0 m/s | - | - |
| 1777666765 | 17.78° C | 34% | 1008.5 hPa | 0 mm | 0 m/s | - | - |
| 1777664432 | 18.33° C | 34% | 1009 hPa | 0 mm | 0 m/s | - | - |
| 1777663234 | 18.33° C | 37% | 1009.2 hPa | 0 mm | 0 m/s | - | - |
| 1777663166 | 17.78° C | 37% | 1009.2 hPa | 0 mm | 0 m/s | - | - |
| 1777662032 | 17.78° C | 37% | 1009.2 hPa | 0 mm | 0 m/s | - | - |
| 1777660832 | 17.78° C | 35% | 1009.5 hPa | 0 mm | 3.58 m/s, 278° | - | - |
| 1777659632 | 17.78° C | 39% | 1009.4 hPa | 0 mm | 5.81 m/s, 213° | - | - |
| 1777659566 | 17.78° C | 39% | 1009.4 hPa | 0 mm | 0.45 m/s, 286° | - | - |
| 1777658433 | 17.22° C | 39% | 1009.5 hPa | 0 mm | 0.45 m/s, 281° | - | - |
| 1777657232 | 16.67° C | 44% | 1009.6 hPa | 0 mm | 0 m/s | - | - |
| 1777656031 | 16.11° C | 44% | 1009.9 hPa | 0 mm | 0.45 m/s, 299° | - | - |
| 1777655966 | 16.11° C | 45% | 1009.7 hPa | 0 mm | 4.02 m/s, 309° | - | - |
| 1777654832 | 15.56° C | 45% | 1009.9 hPa | 0 mm | 1.79 m/s, 213° | - | - |
| 1777653632 | 15.56° C | 49% | 1010.2 hPa | 0 mm | 0 m/s | - | - |
| 1777652432 | 14.44° C | 51% | 1010.2 hPa | 0 mm | 0 m/s | - | - |
| 1777652365 | 14.44° C | 51% | 1010.2 hPa | 0 mm | 0 m/s | - | - |
| 1777651230 | 13.89° C | 53% | 1010.5 hPa | 0 mm | 0 m/s | - | - |
| 1777650031 | 13.89° C | 54% | 1010.6 hPa | 0 mm | 0 m/s | - | - |
* Rain latest hour (hover to see other rain measurements)
** Current wind speed in m/s (hover to see current wind gust speed)